sensor_id;sensor_type;location;lat;lon;timestamp;pressure;altitude;pressure_sealevel;temperature;humidity
71938;BME280;59810;48.800;9.086;2022-10-16T00:01:17;97519.91;;;16.54;79.57
71938;BME280;59810;48.800;9.086;2022-10-16T00:03:43;97516.91;;;16.56;79.62
71938;BME280;59810;48.800;9.086;2022-10-16T00:06:09;97511.44;;;16.56;79.32
71938;BME280;59810;48.800;9.086;2022-10-16T00:08:36;97516.59;;;16.57;78.93
71938;BME280;59810;48.800;9.086;2022-10-16T00:13:43;97510.81;;;16.64;78.79
71938;BME280;59810;48.800;9.086;2022-10-16T00:16:12;97516.28;;;16.64;78.86
71938;BME280;59810;48.800;9.086;2022-10-16T00:18:38;97510.81;;;16.64;78.56
71938;BME280;59810;48.800;9.086;2022-10-16T00:23:30;97500.72;;;16.64;78.88
71938;BME280;59810;48.800;9.086;2022-10-16T00:26:00;97511.13;;;16.62;79.14
71938;BME280;59810;48.800;9.086;2022-10-16T00:28:25;97512.22;;;16.61;78.88
71938;BME280;59810;48.800;9.086;2022-10-16T00:30:51;97509.78;;;16.60;78.64
71938;BME280;59810;48.800;9.086;2022-10-16T00:33:17;97515.47;;;16.63;78.24
71938;BME280;59810;48.800;9.086;2022-10-16T00:35:42;97519.53;;;16.66;78.18
71938;BME280;59810;48.800;9.086;2022-10-16T00:38:08;97521.16;;;16.67;78.02
71938;BME280;59810;48.800;9.086;2022-10-16T00:40:34;97529.09;;;16.63;78.28
71938;BME280;59810;48.800;9.086;2022-10-16T00:42:59;97527.72;;;16.66;78.28
71938;BME280;59810;48.800;9.086;2022-10-16T00:45:24;97519.00;;;16.64;78.13
71938;BME280;59810;48.800;9.086;2022-10-16T00:47:51;97522.31;;;16.61;78.60
71938;BME280;59810;48.800;9.086;2022-10-16T00:50:29;97514.66;;;16.63;78.33
71938;BME280;59810;48.800;9.086;2022-10-16T00:52:55;97513.03;;;16.62;78.45
71938;BME280;59810;48.800;9.086;2022-10-16T00:55:22;97520.13;;;16.58;78.65
71938;BME280;59810;48.800;9.086;2022-10-16T00:57:48;97519.63;;;16.56;78.90
71938;BME280;59810;48.800;9.086;2022-10-16T01:00:19;97523.97;;;16.57;78.66
71938;BME280;59810;48.800;9.086;2022-10-16T01:02:51;97529.72;;;16.55;78.56
71938;BME280;59810;48.800;9.086;2022-10-16T01:05:16;97535.41;;;16.59;78.69
71938;BME280;59810;48.800;9.086;2022-10-16T01:07:53;97526.94;;;16.60;78.34
71938;BME280;59810;48.800;9.086;2022-10-16T01:10:35;97528.00;;;16.64;78.12
71938;BME280;59810;48.800;9.086;2022-10-16T01:13:20;97539.97;;;16.68;77.97
71938;BME280;59810;48.800;9.086;2022-10-16T01:21:10;97529.28;;;16.72;77.38
71938;BME280;59810;48.800;9.086;2022-10-16T01:24:02;97526.03;;;16.70;77.40
71938;BME280;59810;48.800;9.086;2022-10-16T01:31:59;97530.31;;;16.76;77.07
71938;BME280;59810;48.800;9.086;2022-10-16T01:34:32;97529.22;;;16.77;77.58
71938;BME280;59810;48.800;9.086;2022-10-16T01:37:07;97524.28;;;16.79;77.24
71938;BME280;59810;48.800;9.086;2022-10-16T01:39:37;97532.53;;;16.74;77.57
71938;BME280;59810;48.800;9.086;2022-10-16T01:42:10;97525.75;;;16.71;77.17
71938;BME280;59810;48.800;9.086;2022-10-16T01:44:37;97524.63;;;16.72;77.73
71938;BME280;59810;48.800;9.086;2022-10-16T01:47:05;97524.94;;;16.71;77.42
71938;BME280;59810;48.800;9.086;2022-10-16T01:49:34;97521.41;;;16.70;77.44
71938;BME280;59810;48.800;9.086;2022-10-16T01:52:06;97511.81;;;16.73;77.32
71938;BME280;59810;48.800;9.086;2022-10-16T01:54:35;97513.72;;;16.72;77.22
71938;BME280;59810;48.800;9.086;2022-10-16T01:57:05;97512.91;;;16.72;77.24
71938;BME280;59810;48.800;9.086;2022-10-16T01:59:32;97519.41;;;16.76;77.08
71938;BME280;59810;48.800;9.086;2022-10-16T02:02:05;97505.34;;;16.69;77.52
71938;BME280;59810;48.800;9.086;2022-10-16T02:04:56;97517.78;;;16.75;77.09
71938;BME280;59810;48.800;9.086;2022-10-16T02:07:24;97521.63;;;16.74;76.68
71938;BME280;59810;48.800;9.086;2022-10-16T02:09:49;97515.88;;;16.75;76.98
71938;BME280;59810;48.800;9.086;2022-10-16T02:12:33;97519.41;;;16.76;76.82
71938;BME280;59810;48.800;9.086;2022-10-16T02:15:02;97519.69;;;16.74;76.83
71938;BME280;59810;48.800;9.086;2022-10-16T02:17:27;97518.91;;;16.74;77.14
71938;BME280;59810;48.800;9.086;2022-10-16T02:19:56;97519.19;;;16.72;77.04
71938;BME280;59810;48.800;9.086;2022-10-16T02:22:36;97534.72;;;16.72;76.90
71938;BME280;59810;48.800;9.086;2022-10-16T02:25:15;97529.28;;;16.72;77.20
71938;BME280;59810;48.800;9.086;2022-10-16T02:27:58;97521.03;;;16.77;76.78
71938;BME280;59810;48.800;9.086;2022-10-16T02:30:35;97515.06;;;16.75;76.90
71938;BME280;59810;48.800;9.086;2022-10-16T02:33:04;97514.19;;;16.79;76.87
71938;BME280;59810;48.800;9.086;2022-10-16T02:35:31;97518.81;;;16.79;76.83
71938;BME280;59810;48.800;9.086;2022-10-16T02:37:57;97517.50;;;16.76;77.20
71938;BME280;59810;48.800;9.086;2022-10-16T02:40:25;97517.78;;;16.75;76.83
71938;BME280;59810;48.800;9.086;2022-10-16T02:42:52;97524.06;;;16.75;76.90
71938;BME280;59810;48.800;9.086;2022-10-16T02:45:18;97518.38;;;16.72;77.41
71938;BME280;59810;48.800;9.086;2022-10-16T02:47:44;97524.88;;;16.76;77.03
71938;BME280;59810;48.800;9.086;2022-10-16T02:50:09;97527.06;;;16.74;76.85
71938;BME280;59810;48.800;9.086;2022-10-16T02:52:34;97533.03;;;16.76;76.62
71938;BME280;59810;48.800;9.086;2022-10-16T02:55:00;97531.34;;;16.80;76.48
71938;BME280;59810;48.800;9.086;2022-10-16T02:57:28;97538.94;;;16.83;76.32
71938;BME280;59810;48.800;9.086;2022-10-16T02:59:53;97545.50;;;16.82;76.45
71938;BME280;59810;48.800;9.086;2022-10-16T03:02:21;97539.00;;;16.78;76.55
71938;BME280;59810;48.800;9.086;2022-10-16T03:04:48;97534.59;;;16.82;76.27
71938;BME280;59810;48.800;9.086;2022-10-16T03:07:14;97531.88;;;16.82;76.85
71938;BME280;59810;48.800;9.086;2022-10-16T03:09:39;97537.03;;;16.84;76.36
71938;BME280;59810;48.800;9.086;2022-10-16T03:12:05;97532.16;;;16.80;76.65
71938;BME280;59810;48.800;9.086;2022-10-16T03:14:30;97533.78;;;16.82;76.20
71938;BME280;59810;48.800;9.086;2022-10-16T03:16:56;97535.19;;;16.79;76.32
71938;BME280;59810;48.800;9.086;2022-10-16T03:19:21;97537.91;;;16.79;76.11
71938;BME280;59810;48.800;9.086;2022-10-16T03:21:46;97541.22;;;16.76;76.53
71938;BME280;59810;48.800;9.086;2022-10-16T03:24:12;97541.16;;;16.81;76.33
71938;BME280;59810;48.800;9.086;2022-10-16T03:26:37;97540.28;;;16.86;75.99
71938;BME280;59810;48.800;9.086;2022-10-16T03:29:03;97537.31;;;16.82;76.14
71938;BME280;59810;48.800;9.086;2022-10-16T03:31:29;97535.69;;;16.81;76.78
71938;BME280;59810;48.800;9.086;2022-10-16T03:33:55;97536.81;;;16.80;75.94
71938;BME280;59810;48.800;9.086;2022-10-16T03:36:20;97540.06;;;16.82;76.10
71938;BME280;59810;48.800;9.086;2022-10-16T03:38:46;97535.41;;;16.83;76.10
71938;BME280;59810;48.800;9.086;2022-10-16T03:41:11;97535.69;;;16.81;76.43
71938;BME280;59810;48.800;9.086;2022-10-16T03:43:36;97538.28;;;16.72;77.26
71938;BME280;59810;48.800;9.086;2022-10-16T03:46:02;97537.38;;;16.77;76.39
71938;BME280;59810;48.800;9.086;2022-10-16T03:48:27;97534.16;;;16.75;76.46
71938;BME280;59810;48.800;9.086;2022-10-16T03:50:52;97535.78;;;16.76;76.48
71938;BME280;59810;48.800;9.086;2022-10-16T03:53:18;97543.94;;;16.76;76.53
71938;BME280;59810;48.800;9.086;2022-10-16T03:55:44;97546.16;;;16.74;76.84
71938;BME280;59810;48.800;9.086;2022-10-16T03:58:10;97543.94;;;16.76;76.54
71938;BME280;59810;48.800;9.086;2022-10-16T04:00:35;97553.22;;;16.75;76.95
71938;BME280;59810;48.800;9.086;2022-10-16T04:03:01;97547.25;;;16.73;76.17
71938;BME280;59810;48.800;9.086;2022-10-16T04:05:26;97549.69;;;16.74;76.18
71938;BME280;59810;48.800;9.086;2022-10-16T04:07:52;97551.53;;;16.79;76.35
71938;BME280;59810;48.800;9.086;2022-10-16T04:10:20;97547.47;;;16.76;76.16
71938;BME280;59810;48.800;9.086;2022-10-16T04:12:45;97546.91;;;16.79;76.43
71938;BME280;59810;48.800;9.086;2022-10-16T04:15:10;97553.16;;;16.80;76.35
71938;BME280;59810;48.800;9.086;2022-10-16T04:17:36;97550.44;;;16.80;75.96
71938;BME280;59810;48.800;9.086;2022-10-16T04:20:02;97542.56;;;16.78;76.07
71938;BME280;59810;48.800;9.086;2022-10-16T04:22:27;97544.47;;;16.78;76.04
71938;BME280;59810;48.800;9.086;2022-10-16T04:24:53;97542.84;;;16.77;75.87
71938;BME280;59810;48.800;9.086;2022-10-16T04:27:18;97536.56;;;16.76;76.21
71938;BME280;59810;48.800;9.086;2022-10-16T04:29:43;97539.00;;;16.78;75.85
71938;BME280;59810;48.800;9.086;2022-10-16T04:32:09;97535.41;;;16.83;75.21
71938;BME280;59810;48.800;9.086;2022-10-16T04:34:39;97540.78;;;16.88;75.00
71938;BME280;59810;48.800;9.086;2022-10-16T04:37:05;97548.16;;;16.87;75.08
71938;BME280;59810;48.800;9.086;2022-10-16T04:39:30;97550.84;;;16.92;74.81
71938;BME280;59810;48.800;9.086;2022-10-16T04:41:55;97548.94;;;16.93;75.01
71938;BME280;59810;48.800;9.086;2022-10-16T04:44:21;97553.56;;;16.92;75.23
71938;BME280;59810;48.800;9.086;2022-10-16T04:46:47;97559.84;;;16.93;75.27
71938;BME280;59810;48.800;9.086;2022-10-16T04:49:12;97568.84;;;16.93;74.96
71938;BME280;59810;48.800;9.086;2022-10-16T04:51:38;97572.38;;;16.94;74.90
71938;BME280;59810;48.800;9.086;2022-10-16T04:54:03;97570.47;;;16.94;74.83
71938;BME280;59810;48.800;9.086;2022-10-16T04:56:28;97576.50;;;16.91;75.22
71938;BME280;59810;48.800;9.086;2022-10-16T04:58:54;97572.19;;;16.85;75.58
71938;BME280;59810;48.800;9.086;2022-10-16T05:01:22;97575.94;;;16.89;75.67
71938;BME280;59810;48.800;9.086;2022-10-16T05:03:47;97575.44;;;16.87;75.22
71938;BME280;59810;48.800;9.086;2022-10-16T05:06:13;97584.13;;;16.89;75.67
71938;BME280;59810;48.800;9.086;2022-10-16T05:08:38;97574.91;;;16.85;75.51
71938;BME280;59810;48.800;9.086;2022-10-16T05:11:03;97580.44;;;16.80;75.67
71938;BME280;59810;48.800;9.086;2022-10-16T05:13:29;97574.69;;;16.82;75.68
71938;BME280;59810;48.800;9.086;2022-10-16T05:15:54;97577.72;;;16.80;75.68
71938;BME280;59810;48.800;9.086;2022-10-16T05:18:19;97571.72;;;16.78;75.92
71938;BME280;59810;48.800;9.086;2022-10-16T05:20:45;97575.56;;;16.77;75.66
71938;BME280;59810;48.800;9.086;2022-10-16T05:23:10;97571.28;;;16.71;75.98
71938;BME280;59810;48.800;9.086;2022-10-16T05:25:39;97577.31;;;16.68;76.39
71938;BME280;59810;48.800;9.086;2022-10-16T05:28:06;97584.97;;;16.66;76.82
71938;BME280;59810;48.800;9.086;2022-10-16T05:30:32;97573.53;;;16.64;76.32
71938;BME280;59810;48.800;9.086;2022-10-16T05:32:57;97561.81;;;16.63;76.89
71938;BME280;59810;48.800;9.086;2022-10-16T05:35:22;97568.69;;;16.56;77.16
71938;BME280;59810;48.800;9.086;2022-10-16T05:37:48;97576.84;;;16.56;76.59
71938;BME280;59810;48.800;9.086;2022-10-16T05:40:14;97583.13;;;16.56;76.57
71938;BME280;59810;48.800;9.086;2022-10-16T05:42:40;97576.91;;;16.50;76.74
71938;BME280;59810;48.800;9.086;2022-10-16T05:45:06;97585.03;;;16.56;76.64
71938;BME280;59810;48.800;9.086;2022-10-16T05:47:32;97590.50;;;16.56;76.72
71938;BME280;59810;48.800;9.086;2022-10-16T05:49:57;97586.09;;;16.60;76.49
71938;BME280;59810;48.800;9.086;2022-10-16T05:52:26;97601.38;;;16.61;76.28
71938;BME280;59810;48.800;9.086;2022-10-16T05:54:52;97593.47;;;16.59;76.65
71938;BME280;59810;48.800;9.086;2022-10-16T05:57:17;97596.75;;;16.56;76.65
71938;BME280;59810;48.800;9.086;2022-10-16T05:59:43;97597.28;;;16.58;76.77
71938;BME280;59810;48.800;9.086;2022-10-16T06:02:12;97610.91;;;16.58;77.30
71938;BME280;59810;48.800;9.086;2022-10-16T06:04:40;97607.09;;;16.59;77.00
71938;BME280;59810;48.800;9.086;2022-10-16T06:07:05;97613.63;;;16.58;77.02
71938;BME280;59810;48.800;9.086;2022-10-16T06:09:30;97626.13;;;16.35;78.95
71938;BME280;59810;48.800;9.086;2022-10-16T06:11:56;97613.03;;;16.37;78.09
71938;BME280;59810;48.800;9.086;2022-10-16T06:14:21;97616.88;;;16.36;79.29
71938;BME280;59810;48.800;9.086;2022-10-16T06:16:50;97626.66;;;16.37;79.18
71938;BME280;59810;48.800;9.086;2022-10-16T06:19:15;97629.75;;;16.26;79.19
71938;BME280;59810;48.800;9.086;2022-10-16T06:21:41;97621.31;;;16.27;79.16
71938;BME280;59810;48.800;9.086;2022-10-16T06:24:06;97625.09;;;16.31;78.73
71938;BME280;59810;48.800;9.086;2022-10-16T06:26:32;97617.50;;;16.28;78.17
71938;BME280;59810;48.800;9.086;2022-10-16T06:28:58;97617.69;;;16.37;77.97
71938;BME280;59810;48.800;9.086;2022-10-16T06:31:25;97618.50;;;16.37;77.59
71938;BME280;59810;48.800;9.086;2022-10-16T06:33:54;97623.03;;;16.47;76.80
71938;BME280;59810;48.800;9.086;2022-10-16T06:36:21;97624.28;;;16.60;76.63
71938;BME280;59810;48.800;9.086;2022-10-16T06:38:47;97630.22;;;16.67;76.46
71938;BME280;59810;48.800;9.086;2022-10-16T06:41:17;97624.75;;;16.67;77.56
71938;BME280;59810;48.800;9.086;2022-10-16T06:43:46;97639.72;;;16.69;76.50
71938;BME280;59810;48.800;9.086;2022-10-16T06:46:12;97645.13;;;16.74;76.60
71938;BME280;59810;48.800;9.086;2022-10-16T06:48:38;97648.19;;;16.68;76.92
71938;BME280;59810;48.800;9.086;2022-10-16T06:51:06;97649.78;;;16.74;76.48
71938;BME280;59810;48.800;9.086;2022-10-16T06:53:34;97645.66;;;16.76;76.98
71938;BME280;59810;48.800;9.086;2022-10-16T06:56:11;97652.13;;;16.80;76.05
71938;BME280;59810;48.800;9.086;2022-10-16T06:58:37;97656.19;;;16.83;76.37
71938;BME280;59810;48.800;9.086;2022-10-16T07:01:03;97656.13;;;16.93;74.94
71938;BME280;59810;48.800;9.086;2022-10-16T07:03:28;97667.72;;;17.04;74.38
71938;BME280;59810;48.800;9.086;2022-10-16T07:05:53;97661.53;;;17.17;73.88
71938;BME280;59810;48.800;9.086;2022-10-16T07:08:19;97673.75;;;17.25;73.66
71938;BME280;59810;48.800;9.086;2022-10-16T07:10:44;97669.03;;;17.30;73.18
71938;BME280;59810;48.800;9.086;2022-10-16T07:13:09;97674.94;;;17.37;73.13
71938;BME280;59810;48.800;9.086;2022-10-16T07:15:38;97676.28;;;17.40;72.59
71938;BME280;59810;48.800;9.086;2022-10-16T07:18:05;97688.00;;;17.40;73.15
71938;BME280;59810;48.800;9.086;2022-10-16T07:20:31;97684.97;;;17.42;74.09
71938;BME280;59810;48.800;9.086;2022-10-16T07:22:56;97697.53;;;17.43;72.67
71938;BME280;59810;48.800;9.086;2022-10-16T07:25:22;97705.19;;;17.41;72.71
71938;BME280;59810;48.800;9.086;2022-10-16T07:27:47;97710.66;;;17.41;72.93
71938;BME280;59810;48.800;9.086;2022-10-16T07:30:12;97707.47;;;17.34;73.36
71938;BME280;59810;48.800;9.086;2022-10-16T07:32:38;97704.50;;;17.30;73.20
71938;BME280;59810;48.800;9.086;2022-10-16T07:35:06;97712.19;;;17.28;73.84
71938;BME280;59810;48.800;9.086;2022-10-16T07:37:31;97709.16;;;17.30;73.54
71938;BME280;59810;48.800;9.086;2022-10-16T07:39:59;97703.13;;;17.33;73.34
71938;BME280;59810;48.800;9.086;2022-10-16T07:42:27;97695.75;;;17.33;72.78
71938;BME280;59810;48.800;9.086;2022-10-16T07:44:52;97708.78;;;17.36;73.08
71938;BME280;59810;48.800;9.086;2022-10-16T07:47:20;97706.59;;;17.38;73.60
71938;BME280;59810;48.800;9.086;2022-10-16T07:49:45;97710.88;;;17.45;72.32
71938;BME280;59810;48.800;9.086;2022-10-16T07:52:11;97718.69;;;17.51;72.30
71938;BME280;59810;48.800;9.086;2022-10-16T07:54:36;97721.09;;;17.58;72.34
71938;BME280;59810;48.800;9.086;2022-10-16T07:57:01;97714.72;;;17.67;72.32
71938;BME280;59810;48.800;9.086;2022-10-16T07:59:30;97716.78;;;17.76;71.49
71938;BME280;59810;48.800;9.086;2022-10-16T08:01:55;97722.09;;;17.86;72.14
71938;BME280;59810;48.800;9.086;2022-10-16T08:04:20;97714.38;;;17.93;72.49
71938;BME280;59810;48.800;9.086;2022-10-16T08:06:48;97716.22;;;17.97;72.55
71938;BME280;59810;48.800;9.086;2022-10-16T08:09:14;97720.56;;;17.98;71.08
71938;BME280;59810;48.800;9.086;2022-10-16T08:11:39;97722.31;;;18.08;70.52
71938;BME280;59810;48.800;9.086;2022-10-16T08:14:04;97719.00;;;18.11;70.35
71938;BME280;59810;48.800;9.086;2022-10-16T08:16:30;97726.31;;;18.16;69.80
71938;BME280;59810;48.800;9.086;2022-10-16T08:18:55;97728.69;;;18.22;69.25
71938;BME280;59810;48.800;9.086;2022-10-16T08:21:22;97732.44;;;18.26;69.42
71938;BME280;59810;48.800;9.086;2022-10-16T08:23:51;97741.00;;;18.39;69.84
71938;BME280;59810;48.800;9.086;2022-10-16T08:26:17;97745.47;;;18.48;69.34
71938;BME280;59810;48.800;9.086;2022-10-16T08:28:44;97756.88;;;18.55;69.47
71938;BME280;59810;48.800;9.086;2022-10-16T08:31:12;97766.09;;;18.59;69.38
71938;BME280;59810;48.800;9.086;2022-10-16T08:33:40;97764.72;;;18.62;69.21
71938;BME280;59810;48.800;9.086;2022-10-16T08:36:06;97753.84;;;18.57;68.73
71938;BME280;59810;48.800;9.086;2022-10-16T08:38:33;97764.25;;;18.55;68.52
71938;BME280;59810;48.800;9.086;2022-10-16T08:49:13;97773.44;;;18.64;68.23
71938;BME280;59810;48.800;9.086;2022-10-16T08:51:39;97766.84;;;18.65;68.44
71938;BME280;59810;48.800;9.086;2022-10-16T08:56:57;97769.59;;;18.65;68.42
71938;BME280;59810;48.800;9.086;2022-10-16T08:59:26;97771.72;;;18.68;67.94
71938;BME280;59810;48.800;9.086;2022-10-16T09:01:54;97765.97;;;18.70;68.40
71938;BME280;59810;48.800;9.086;2022-10-16T09:12:30;97760.59;;;18.78;67.43
71938;BME280;59810;48.800;9.086;2022-10-16T09:17:50;97772.28;;;18.84;67.12
71938;BME280;59810;48.800;9.086;2022-10-16T09:20:26;97774.94;;;18.89;66.72
71938;BME280;59810;48.800;9.086;2022-10-16T09:23:14;97779.50;;;18.93;65.96
71938;BME280;59810;48.800;9.086;2022-10-16T09:25:43;97774.97;;;19.03;65.01
71938;BME280;59810;48.800;9.086;2022-10-16T09:28:12;97789.06;;;19.10;65.74
71938;BME280;59810;48.800;9.086;2022-10-16T09:30:38;97791.59;;;19.06;65.77
71938;BME280;59810;48.800;9.086;2022-10-16T09:33:05;97784.00;;;19.17;65.20
71938;BME280;59810;48.800;9.086;2022-10-16T09:38:00;97790.13;;;19.27;65.17
71938;BME280;59810;48.800;9.086;2022-10-16T09:40:38;97796.63;;;19.32;65.62
71938;BME280;59810;48.800;9.086;2022-10-16T09:46:21;97793.47;;;19.38;64.77
71938;BME280;59810;48.800;9.086;2022-10-16T09:48:43;97797.22;;;19.42;65.55
71938;BME280;59810;48.800;9.086;2022-10-16T09:51:23;97788.75;;;19.57;64.88
71938;BME280;59810;48.800;9.086;2022-10-16T09:53:55;97807.00;;;19.76;62.96
71938;BME280;59810;48.800;9.086;2022-10-16T09:56:34;97802.97;;;19.87;63.09
71938;BME280;59810;48.800;9.086;2022-10-16T09:59:18;97804.84;;;20.00;62.44
71938;BME280;59810;48.800;9.086;2022-10-16T10:01:50;97799.97;;;20.11;63.71
71938;BME280;59810;48.800;9.086;2022-10-16T10:04:24;97815.09;;;20.22;61.88
71938;BME280;59810;48.800;9.086;2022-10-16T10:06:57;97812.53;;;20.26;60.52
71938;BME280;59810;48.800;9.086;2022-10-16T10:09:24;97821.56;;;20.40;61.00
71938;BME280;59810;48.800;9.086;2022-10-16T10:11:55;97826.84;;;20.50;60.40
71938;BME280;59810;48.800;9.086;2022-10-16T10:14:30;97824.09;;;20.50;59.95
71938;BME280;59810;48.800;9.086;2022-10-16T10:19:46;97830.97;;;20.61;60.18
71938;BME280;59810;48.800;9.086;2022-10-16T10:30:20;97826.66;;;21.36;58.05
71938;BME280;59810;48.800;9.086;2022-10-16T10:38:38;97834.22;;;21.61;57.26
71938;BME280;59810;48.800;9.086;2022-10-16T10:41:18;97833.13;;;21.71;57.17
71938;BME280;59810;48.800;9.086;2022-10-16T10:54:55;97837.59;;;22.55;56.23
71938;BME280;59810;48.800;9.086;2022-10-16T11:06:20;97827.56;;;22.85;55.15
71938;BME280;59810;48.800;9.086;2022-10-16T11:08:57;97827.88;;;22.92;53.74
71938;BME280;59810;48.800;9.086;2022-10-16T11:11:30;97839.03;;;23.04;55.64
71938;BME280;59810;48.800;9.086;2022-10-16T11:16:34;97833.09;;;23.75;53.42
71938;BME280;59810;48.800;9.086;2022-10-16T11:21:44;97829.50;;;24.04;51.51
71938;BME280;59810;48.800;9.086;2022-10-16T11:24:39;97827.59;;;23.96;50.47
71938;BME280;59810;48.800;9.086;2022-10-16T11:27:09;97833.81;;;24.22;50.44
71938;BME280;59810;48.800;9.086;2022-10-16T11:29:46;97833.31;;;24.20;51.02
71938;BME280;59810;48.800;9.086;2022-10-16T11:32:23;97829.47;;;24.63;49.58
71938;BME280;59810;48.800;9.086;2022-10-16T11:34:58;97829.41;;;24.92;47.75
71938;BME280;59810;48.800;9.086;2022-10-16T11:37:29;97824.22;;;25.11;47.91
71938;BME280;59810;48.800;9.086;2022-10-16T11:42:51;97823.75;;;25.42;48.00
71938;BME280;59810;48.800;9.086;2022-10-16T11:45:35;97825.97;;;25.61;46.09
71938;BME280;59810;48.800;9.086;2022-10-16T11:51:59;97830.56;;;25.57;45.72
71938;BME280;59810;48.800;9.086;2022-10-16T11:54:38;97834.06;;;25.66;46.23
71938;BME280;59810;48.800;9.086;2022-10-16T11:57:15;97831.22;;;25.87;45.63
71938;BME280;59810;48.800;9.086;2022-10-16T11:59:55;97835.69;;;25.92;45.46
71938;BME280;59810;48.800;9.086;2022-10-16T12:07:57;97813.66;;;25.26;47.84
71938;BME280;59810;48.800;9.086;2022-10-16T12:10:29;97817.81;;;25.32;48.22
71938;BME280;59810;48.800;9.086;2022-10-16T12:12:57;97819.72;;;25.07;46.24
71938;BME280;59810;48.800;9.086;2022-10-16T12:15:30;97820.41;;;24.83;47.54
71938;BME280;59810;48.800;9.086;2022-10-16T12:17:56;97821.28;;;24.54;48.00
71938;BME280;59810;48.800;9.086;2022-10-16T12:20:33;97811.16;;;24.37;48.38
71938;BME280;59810;48.800;9.086;2022-10-16T12:25:57;97816.50;;;24.13;49.79
71938;BME280;59810;48.800;9.086;2022-10-16T12:28:27;97822.28;;;24.20;51.55
71938;BME280;59810;48.800;9.086;2022-10-16T12:31:03;97827.19;;;24.65;49.42
71938;BME280;59810;48.800;9.086;2022-10-16T12:33:36;97832.47;;;24.99;48.97
71938;BME280;59810;48.800;9.086;2022-10-16T12:36:13;97825.84;;;25.12;48.16
71938;BME280;59810;48.800;9.086;2022-10-16T12:38:48;97820.53;;;24.87;49.83
71938;BME280;59810;48.800;9.086;2022-10-16T12:41:25;97828.81;;;24.87;48.87
71938;BME280;59810;48.800;9.086;2022-10-16T12:43:52;97822.34;;;24.62;49.65
71938;BME280;59810;48.800;9.086;2022-10-16T12:48:44;97821.28;;;24.25;50.66
71938;BME280;59810;48.800;9.086;2022-10-16T12:51:11;97828.25;;;24.31;50.59
71938;BME280;59810;48.800;9.086;2022-10-16T12:53:37;97832.84;;;24.18;51.00
71938;BME280;59810;48.800;9.086;2022-10-16T12:56:26;97830.38;;;23.96;51.73
71938;BME280;59810;48.800;9.086;2022-10-16T13:07:17;97835.03;;;24.04;55.31
71938;BME280;59810;48.800;9.086;2022-10-16T13:12:31;97837.75;;;24.12;56.12
71938;BME280;59810;48.800;9.086;2022-10-16T13:15:26;97832.09;;;24.38;56.32
71938;BME280;59810;48.800;9.086;2022-10-16T13:18:16;97839.72;;;24.62;57.03
71938;BME280;59810;48.800;9.086;2022-10-16T13:20:51;97836.59;;;24.72;56.59
71938;BME280;59810;48.800;9.086;2022-10-16T13:23:43;97839.00;;;24.74;56.17
71938;BME280;59810;48.800;9.086;2022-10-16T13:26:28;97838.19;;;24.52;57.07
71938;BME280;59810;48.800;9.086;2022-10-16T13:28:59;97833.88;;;24.43;57.29
71938;BME280;59810;48.800;9.086;2022-10-16T13:31:28;97832.16;;;24.30;57.42
71938;BME280;59810;48.800;9.086;2022-10-16T13:33:59;97833.84;;;24.13;58.51
71938;BME280;59810;48.800;9.086;2022-10-16T13:36:44;97841.34;;;24.04;58.94
71938;BME280;59810;48.800;9.086;2022-10-16T13:39:13;97835.28;;;23.90;59.45
71938;BME280;59810;48.800;9.086;2022-10-16T13:41:38;97839.66;;;23.91;59.34
71938;BME280;59810;48.800;9.086;2022-10-16T13:44:05;97845.16;;;23.91;60.13
71938;BME280;59810;48.800;9.086;2022-10-16T13:46:34;97844.72;;;23.80;58.87
71938;BME280;59810;48.800;9.086;2022-10-16T13:49:02;97834.50;;;23.81;58.99
71938;BME280;59810;48.800;9.086;2022-10-16T13:51:29;97835.34;;;24.11;57.77
71938;BME280;59810;48.800;9.086;2022-10-16T13:53:56;97838.16;;;23.94;57.49
71938;BME280;59810;48.800;9.086;2022-10-16T13:56:27;97837.22;;;23.89;58.99
71938;BME280;59810;48.800;9.086;2022-10-16T14:01:43;97835.19;;;23.69;60.76
71938;BME280;59810;48.800;9.086;2022-10-16T14:04:11;97835.84;;;23.66;59.78
71938;BME280;59810;48.800;9.086;2022-10-16T14:06:41;97833.63;;;23.51;59.63
71938;BME280;59810;48.800;9.086;2022-10-16T14:09:29;97834.78;;;23.33;59.85
71938;BME280;59810;48.800;9.086;2022-10-16T14:12:00;97837.06;;;23.31;61.07
71938;BME280;59810;48.800;9.086;2022-10-16T14:14:55;97837.22;;;23.43;62.87
71938;BME280;59810;48.800;9.086;2022-10-16T14:19:51;97833.94;;;23.41;62.56
71938;BME280;59810;48.800;9.086;2022-10-16T14:22:27;97840.47;;;23.27;62.60
71938;BME280;59810;48.800;9.086;2022-10-16T14:24:53;97833.06;;;23.02;62.45
71938;BME280;59810;48.800;9.086;2022-10-16T14:27:33;97841.50;;;22.97;62.83
71938;BME280;59810;48.800;9.086;2022-10-16T14:32:53;97852.63;;;22.75;63.93
71938;BME280;59810;48.800;9.086;2022-10-16T14:35:35;97853.44;;;22.66;64.69
71938;BME280;59810;48.800;9.086;2022-10-16T14:38:02;97850.69;;;22.58;65.24
71938;BME280;59810;48.800;9.086;2022-10-16T14:40:30;97851.81;;;22.65;65.67
71938;BME280;59810;48.800;9.086;2022-10-16T14:42:57;97849.41;;;22.64;66.49
71938;BME280;59810;48.800;9.086;2022-10-16T14:45:26;97858.94;;;22.66;67.00
71938;BME280;59810;48.800;9.086;2022-10-16T14:47:55;97850.03;;;22.61;66.67
71938;BME280;59810;48.800;9.086;2022-10-16T14:50:21;97851.19;;;22.60;66.76
71938;BME280;59810;48.800;9.086;2022-10-16T14:52:47;97855.56;;;22.52;67.23
71938;BME280;59810;48.800;9.086;2022-10-16T14:55:13;97854.41;;;22.53;66.28
71938;BME280;59810;48.800;9.086;2022-10-16T14:57:38;97852.16;;;22.47;65.97
71938;BME280;59810;48.800;9.086;2022-10-16T15:00:19;97848.91;;;22.45;66.38
71938;BME280;59810;48.800;9.086;2022-10-16T15:02:45;97854.09;;;22.46;66.64
71938;BME280;59810;48.800;9.086;2022-10-16T15:07:42;97846.13;;;22.36;67.55
71938;BME280;59810;48.800;9.086;2022-10-16T15:10:08;97849.19;;;22.43;67.32
71938;BME280;59810;48.800;9.086;2022-10-16T15:12:36;97848.72;;;22.41;67.36
71938;BME280;59810;48.800;9.086;2022-10-16T15:17:50;97854.53;;;22.31;68.52